• Join FlightAware (Why Join?)
  • Login
  • US Flag 
11:43AM EDT


 

Airport Tracker/Info


-or-


 

Live Flight TrackerFlight Track Log ✈ SWA2280 ✈ 27-Apr-2013 ✈ KBWI - KBOS

Flight Track Log - Related Links

Times and Time Zones

All times are in EDT time to prevent confusion due to time zone crossing. See the SWA2280 flight status page for this flight to view local times or setup timezone preferences in your user account.

Time Position Orientation Groundspeed Altitude Reporting Facility
EDT Latitude Longitude Course Direction KTS MPH feet Rate Location/Type
09:21AM 39.1667 -76.7167 119° Southeast 181 208 1,800  Level Potomac TRACON
09:24AM 39.1156 -76.5975 119° Southeast 141 162 7,900 2,640 Climbing Washington Center
09:25AM 39.1247 -76.4986 83° East 197 227 10,800 2,820 Climbing Washington Center
09:26AM 39.1358 -76.3811 83° East 268 308 13,700 1,560 Climbing Washington Center
09:27AM 39.1450 -76.2581 84° East 309 356 14,000 780 Climbing Washington Center
09:28AM 39.1622 -76.1511 78° East 330 380 15,300 1,920 Climbing Washington Center
09:29AM 39.1753 -76.0225 82° East 349 402 17,900 2,640 Climbing Washington Center
09:30AM 39.1964 -75.8889 78° East 365 420 20,700 2,640 Climbing Washington Center
09:31AM 39.2675 -75.7847 49° Northeast 370 426 23,100 2,460 Climbing Washington Center
09:32AM 39.3489 -75.6800 45° Northeast 375 432 25,600 2,340 Climbing Washington Center
09:33AM 39.4322 -75.5728 45° Northeast 402 463 27,900 1,560 Climbing Washington Center
09:35AM 39.6408 -75.3028 45° Northeast 436 502 31,000 900 Climbing New York Center
09:36AM 39.7267 -75.1814 47° Northeast 441 507 31,000  Level New York Center
09:37AM 39.8106 -75.0542 49° Northeast 453 521 31,000  Level New York Center
09:38AM 39.8964 -74.9322 47° Northeast 453 521 31,000  Level New York Center
09:39AM 39.9797 -74.8153 47° Northeast 460 529 31,000  Level New York Center
09:40AM 40.0717 -74.6850 47° Northeast 447 514 31,000  Level New York Center
09:41AM 40.1481 -74.5781 47° Northeast 452 520 31,000  Level New York Center
09:42AM 40.2378 -74.4389 50° Northeast 459 528 31,000  Level New York Center
09:43AM 40.3167 -74.3125 51° Northeast 454 522 31,000  Level New York Center
09:44AM 40.3933 -74.1883 51° Northeast 447 514 31,000  Level New York Center
09:45AM 40.4719 -74.0639 50° Northeast 447 514 31,000 -360 Level New York Center
09:48AM 40.6586 -73.7669 50° Northeast 440 506 29,900 -1,020 Descending Boston Center
09:49AM 40.7289 -73.6425 53° Northeast 440 506 27,700 -2,280 Descending Boston Center
09:50AM 40.8156 -73.5042 50° Northeast 426 490 25,000 -1,740 Descending Boston Center
09:51AM 40.8897 -73.3928 49° Northeast 409 471 24,000 -540 Descending Boston Center
09:52AM 40.9569 -73.3031 45° Northeast 390 449 24,000  Level Boston Center
09:53AM 41.0286 -73.1911 50° Northeast 385 443 24,000 -420 Level Boston Center
09:54AM 41.0919 -73.0681 56° Northeast 390 449 23,200 -540 Descending Boston Center
09:55AM 41.1406 -72.9417 63° Northeast 390 449 23,000 -120 Descending Boston Center
09:56AM 41.1911 -72.8153 62° Northeast 385 443 23,000  Level Boston Center
09:57AM 41.2414 -72.6858 63° Northeast 385 443 23,000  Level Boston Center
09:58AM 41.2978 -72.5422 62° Northeast 385 443 23,000  Level Boston Center
09:59AM 41.3500 -72.4097 62° Northeast 391 450 23,000  Level Boston Center
10:00AM 41.3978 -72.2825 63° Northeast 386 444 23,000 -300 Level Boston Center
10:01AM 41.4414 -72.1686 63° Northeast 386 444 22,500 -1,260 Descending Boston Center
10:02AM 41.4911 -72.0467 61° Northeast 381 438 20,500 -1,860 Descending Boston Center
10:03AM 41.5303 -71.9492 62° Northeast 376 433 18,800 -1,920 Descending Boston Center
10:04AM 41.5836 -71.8072 63° Northeast 362 417 16,700 -2,220 Descending Boston Center
10:05AM 41.6308 -71.6819 63° Northeast 349 402 14,400 -2,100 Descending Boston Center
10:06AM 41.6678 -71.5758 65° Northeast 344 396 12,600 -1,620 Descending Boston Center
10:07AM 41.7125 -71.4583 63° Northeast 331 381 11,200 -780 Descending Boston Center
10:08AM 41.7492 -71.3744 60° Northeast 303 349 11,100 -60 Descending Boston Center
10:09AM 41.8069 -71.2897 48° Northeast 281 323 11,100 -600 Level Boston Center
10:10AM 41.8667 -71.2442 30° Northeast 268 308 9,900 -1,500 Descending Boston Center
10:11AM 41.9436 -71.2092 19° North 270 311 8,200 -1,560 Descending Boston Center
10:12AM 42.0078 -71.1772 20° North 270 311 6,800 -1,500 Descending Boston Center
10:13AM 42.0867 -71.1392 20° North 265 305 5,200 -1,380 Descending Boston Center
10:14AM 42.1667 -71.1000 20° North 267 307 4,100 -1,200 Descending KA90
10:15AM 42.2333 -71.0667 20° North 238 274 2,800 -1,200 Descending KA90
10:16AM 42.2833 -71.0500 14° North 187 215 1,800 -960 Descending KA90
10:17AM 42.3167 -71.0333 20° North 144 166 900 3,060 Descending KA90
10:19AM 42.4017 -70.9922 20° North 169 194 11,000 3,360 Climbing Boston Center
10:20AM 42.4472 -70.9686 21° North 169 194 11,000  Level Boston Center
10:21AM 42.4947 -70.9478 18° North 169 194 11,000  Level Boston Center
10:23AM 42.3630 -71.0064 196° South  Level Estimated
10:30AM 42.3630 -71.0064 196° South  Level Estimated
10:31AM 42.3630 -71.0064 196° South  Level Estimated
10:32AM 42.3630 -71.0064 196° South  Level Estimated
10:33AM 42.3630 -71.0064 196° South  Level Estimated